EZY43TM EGKK-LIPR
Flight info
| Callsign | EZY43TM |
|---|---|
| Flight time | N/A |
| Altitude | 37000 |
| Route | DVR UL9 KONAN UL607 KOK M150 GEBDA/N0457F360 Y173 PABLA/N0455F370 Z721 UTABA L607 ELMEM N606 OTRES T307 DIRAB DCT LAPAB DCT AMLON |
| Aircraft | A320/M-SDE3FGHIRWY/LB1 |
Departure
| Time | 2026-05-06 11:06 |
|---|---|
| Airport | London Gatwick Airport (EGKK) |
Arrival
| Time | N/A |
|---|---|
| Airport | Federico Fellini International Airport (LIPR) |
| Time | Latitude | Longitude | Altitude | Speed | Heading |
|---|---|---|---|---|---|
| 2026-05-06 10:43 | 51.15817 | -0.17941 | 209 ft | 0 kts | 77° |
| 2026-05-06 10:54 | 51.15813 | -0.17965 | 222 ft | 2 kts | 77° |
| 2026-05-06 10:54 | 51.15810 | -0.17992 | 214 ft | 2 kts | 77° |
| 2026-05-06 10:55 | 51.15806 | -0.18018 | 222 ft | 2 kts | 77° |
| 2026-05-06 10:55 | 51.15804 | -0.18045 | 219 ft | 2 kts | 124° |
| 2026-05-06 10:55 | 51.15812 | -0.18058 | 220 ft | 0 kts | 169° |
| 2026-05-06 10:58 | 51.15793 | -0.18053 | 222 ft | 5 kts | 169° |
| 2026-05-06 10:58 | 51.15747 | -0.18040 | 217 ft | 7 kts | 170° |
| 2026-05-06 10:59 | 51.15707 | -0.18036 | 212 ft | 5 kts | 191° |
| 2026-05-06 10:59 | 51.15685 | -0.18070 | 214 ft | 6 kts | 242° |
| 2026-05-06 10:59 | 51.15671 | -0.18156 | 215 ft | 10 kts | 256° |
| 2026-05-06 10:59 | 51.15650 | -0.18295 | 216 ft | 15 kts | 258° |
| 2026-05-06 11:00 | 51.15643 | -0.18358 | 209 ft | 17 kts | 259° |
| 2026-05-06 11:00 | 51.15616 | -0.18566 | 212 ft | 22 kts | 258° |
| 2026-05-06 11:00 | 51.15578 | -0.18808 | 215 ft | 21 kts | 231° |
| 2026-05-06 11:00 | 51.15513 | -0.18812 | 212 ft | 7 kts | 167° |
| 2026-05-06 11:01 | 51.15431 | -0.18787 | 210 ft | 17 kts | 169° |
| 2026-05-06 11:01 | 51.15295 | -0.18740 | 210 ft | 22 kts | 167° |
| 2026-05-06 11:01 | 51.15165 | -0.18701 | 214 ft | 17 kts | 183° |
| 2026-05-06 11:01 | 51.15110 | -0.18861 | 217 ft | 20 kts | 259° |
| 2026-05-06 11:02 | 51.15081 | -0.19091 | 214 ft | 23 kts | 258° |
| 2026-05-06 11:02 | 51.15043 | -0.19365 | 211 ft | 27 kts | 257° |
| 2026-05-06 11:02 | 51.15000 | -0.19679 | 216 ft | 31 kts | 257° |
| 2026-05-06 11:02 | 51.14951 | -0.20032 | 213 ft | 34 kts | 257° |
| 2026-05-06 11:03 | 51.14897 | -0.20417 | 220 ft | 35 kts | 258° |
| 2026-05-06 11:03 | 51.14851 | -0.20746 | 212 ft | 29 kts | 254° |
| 2026-05-06 11:03 | 51.14808 | -0.21044 | 214 ft | 16 kts | 256° |
| 2026-05-06 11:03 | 51.14777 | -0.21223 | 213 ft | 19 kts | 254° |
| 2026-05-06 11:04 | 51.14731 | -0.21393 | 217 ft | 15 kts | 206° |
| 2026-05-06 11:04 | 51.14629 | -0.21332 | 212 ft | 18 kts | 154° |
| 2026-05-06 11:04 | 51.14524 | -0.21208 | 217 ft | 21 kts | 109° |
| 2026-05-06 11:04 | 51.14540 | -0.21021 | 220 ft | 0 kts | 76° |
| 2026-05-06 11:05 | 51.14542 | -0.21009 | 220 ft | 7 kts | 76° |
| 2026-05-06 11:05 | 51.14602 | -0.20585 | 217 ft | 75 kts | 77° |
| 2026-05-06 11:05 | 51.14759 | -0.19446 | 216 ft | 133 kts | 77° |
| 2026-05-06 11:05 | 51.14977 | -0.17795 | 421 ft | 159 kts | 75° |
| 2026-05-06 11:06 | 51.15179 | -0.16050 | 1127 ft | 160 kts | 75° |
| 2026-05-06 11:06 | 51.15403 | -0.14329 | 1907 ft | 155 kts | 72° |
| 2026-05-06 11:06 | 51.15619 | -0.12707 | 2652 ft | 150 kts | 72° |
| 2026-05-06 11:06 | 51.15831 | -0.11129 | 3386 ft | 138 kts | 72° |
| 2026-05-06 11:07 | 51.16017 | -0.09701 | 4006 ft | 136 kts | 71° |
| 2026-05-06 11:07 | 51.16238 | -0.08078 | 4467 ft | 159 kts | 70° |
| 2026-05-06 11:07 | 51.16507 | -0.06198 | 4823 ft | 186 kts | 70° |
| 2026-05-06 11:07 | 51.16805 | -0.04066 | 5056 ft | 209 kts | 71° |
| 2026-05-06 11:08 | 51.17129 | -0.01684 | 5357 ft | 229 kts | 73° |
| 2026-05-06 11:08 | 51.17476 | 0.00914 | 5711 ft | 252 kts | 73° |
| 2026-05-06 11:08 | 51.17854 | 0.03766 | 6225 ft | 270 kts | 73° |
| 2026-05-06 11:08 | 51.18237 | 0.06699 | 6966 ft | 277 kts | 76° |
| 2026-05-06 11:09 | 51.18300 | 0.09806 | 7783 ft | 286 kts | 92° |
| 2026-05-06 11:09 | 51.18101 | 0.12977 | 8630 ft | 290 kts | 92° |
| 2026-05-06 11:09 | 51.17904 | 0.16088 | 8984 ft | 311 kts | 92° |
| 2026-05-06 11:09 | 51.17691 | 0.19541 | 9245 ft | 334 kts | 93° |
| 2026-05-06 11:10 | 51.17455 | 0.23353 | 9532 ft | 355 kts | 93° |
| 2026-05-06 11:10 | 51.17213 | 0.27308 | 10154 ft | 363 kts | 93° |
| 2026-05-06 11:10 | 51.17041 | 0.30106 | 10634 ft | 366 kts | 94° |
| 2026-05-06 11:10 | 51.16874 | 0.33484 | 11236 ft | 368 kts | 91° |
| 2026-05-06 11:11 | 51.16778 | 0.37585 | 11890 ft | 373 kts | 90° |
| 2026-05-06 11:11 | 51.16757 | 0.41691 | 12575 ft | 377 kts | 88° |
| 2026-05-06 11:11 | 51.16776 | 0.45883 | 13253 ft | 381 kts | 88° |
| 2026-05-06 11:11 | 51.16805 | 0.50130 | 13860 ft | 387 kts | 88° |
| 2026-05-06 11:12 | 51.16828 | 0.54435 | 14426 ft | 391 kts | 89° |
| 2026-05-06 11:12 | 51.16834 | 0.58784 | 15037 ft | 394 kts | 90° |
| 2026-05-06 11:12 | 51.16822 | 0.63173 | 15578 ft | 399 kts | 90° |
| 2026-05-06 11:12 | 51.16799 | 0.67611 | 16183 ft | 401 kts | 90° |
| 2026-05-06 11:13 | 51.16769 | 0.72068 | 16777 ft | 405 kts | 90° |
| 2026-05-06 11:13 | 51.16739 | 0.76481 | 17543 ft | 402 kts | 90° |
| 2026-05-06 11:13 | 51.16710 | 0.80996 | 18279 ft | 402 kts | 90° |
| 2026-05-06 11:13 | 51.16683 | 0.85409 | 18781 ft | 406 kts | 90° |
| 2026-05-06 11:14 | 51.16655 | 0.89919 | 19266 ft | 410 kts | 90° |
| 2026-05-06 11:14 | 51.16623 | 0.94477 | 19811 ft | 412 kts | 91° |
| 2026-05-06 11:14 | 51.16586 | 0.99038 | 20352 ft | 414 kts | 91° |
| 2026-05-06 11:14 | 51.16550 | 1.03657 | 20870 ft | 417 kts | 91° |
| 2026-05-06 11:15 | 51.16518 | 1.08277 | 21396 ft | 419 kts | 91° |
| 2026-05-06 11:15 | 51.16484 | 1.12942 | 21850 ft | 423 kts | 91° |
| 2026-05-06 11:15 | 51.16447 | 1.17635 | 22343 ft | 425 kts | 91° |
| 2026-05-06 11:15 | 51.16404 | 1.22341 | 22820 ft | 427 kts | 92° |
| 2026-05-06 11:16 | 51.16356 | 1.27043 | 23252 ft | 430 kts | 91° |
| 2026-05-06 11:16 | 51.16305 | 1.31813 | 23683 ft | 432 kts | 92° |
| 2026-05-06 11:16 | 51.16245 | 1.36610 | 24030 ft | 435 kts | 93° |
| 2026-05-06 11:16 | 51.16108 | 1.41440 | 24382 ft | 437 kts | 94° |
| 2026-05-06 11:17 | 51.15892 | 1.46264 | 24765 ft | 438 kts | 95° |
| 2026-05-06 11:17 | 51.15629 | 1.51111 | 25107 ft | 440 kts | 96° |
| 2026-05-06 11:17 | 51.15346 | 1.55971 | 25474 ft | 441 kts | 96° |
| 2026-05-06 11:17 | 51.15067 | 1.60846 | 25832 ft | 443 kts | 96° |
| 2026-05-06 11:18 | 51.14807 | 1.65690 | 26136 ft | 445 kts | 96° |
| 2026-05-06 11:18 | 51.14556 | 1.70610 | 26489 ft | 447 kts | 96° |
| 2026-05-06 11:18 | 51.14313 | 1.75557 | 26794 ft | 449 kts | 95° |
| 2026-05-06 11:18 | 51.14075 | 1.80515 | 27100 ft | 451 kts | 95° |
| 2026-05-06 11:19 | 51.13835 | 1.85494 | 27435 ft | 452 kts | 94° |
| 2026-05-06 11:19 | 51.13586 | 1.90498 | 27711 ft | 454 kts | 95° |
| 2026-05-06 11:19 | 51.13327 | 1.95501 | 28054 ft | 454 kts | 95° |
| 2026-05-06 11:19 | 51.13064 | 2.00502 | 28448 ft | 453 kts | 96° |
| 2026-05-06 11:20 | 51.12800 | 2.05498 | 28851 ft | 451 kts | 96° |
| 2026-05-06 11:20 | 51.12537 | 2.10392 | 29256 ft | 450 kts | 96° |
| 2026-05-06 11:20 | 51.12268 | 2.15341 | 29679 ft | 449 kts | 96° |
| 2026-05-06 11:20 | 51.11999 | 2.20294 | 30067 ft | 448 kts | 95° |
| 2026-05-06 11:21 | 51.11732 | 2.25229 | 30425 ft | 446 kts | 95° |
| 2026-05-06 11:21 | 51.11466 | 2.30131 | 30761 ft | 446 kts | 95° |
| 2026-05-06 11:21 | 51.11194 | 2.35041 | 31099 ft | 444 kts | 95° |
| 2026-05-06 11:21 | 51.10921 | 2.39926 | 31467 ft | 443 kts | 96° |
| 2026-05-06 11:22 | 51.10647 | 2.44800 | 31833 ft | 441 kts | 95° |
| 2026-05-06 11:22 | 51.10373 | 2.49598 | 32169 ft | 440 kts | 96° |
| 2026-05-06 11:22 | 51.10091 | 2.54435 | 32513 ft | 439 kts | 96° |
| 2026-05-06 11:22 | 51.09805 | 2.59266 | 32850 ft | 439 kts | 97° |
| 2026-05-06 11:23 | 51.09252 | 2.64035 | 33199 ft | 437 kts | 107° |
| 2026-05-06 11:23 | 51.08272 | 2.68578 | 33523 ft | 435 kts | 114° |
| 2026-05-06 11:23 | 51.06921 | 2.72879 | 33860 ft | 433 kts | 119° |
| 2026-05-06 11:23 | 51.05512 | 2.77102 | 34133 ft | 433 kts | 118° |
| 2026-05-06 11:24 | 51.04103 | 2.81330 | 34374 ft | 434 kts | 119° |
| 2026-05-06 11:24 | 51.02702 | 2.85527 | 34495 ft | 437 kts | 119° |
| 2026-05-06 11:24 | 51.01257 | 2.89860 | 34615 ft | 440 kts | 119° |
| 2026-05-06 11:24 | 50.99843 | 2.94095 | 34733 ft | 442 kts | 120° |
| 2026-05-06 11:25 | 50.98399 | 2.98416 | 34891 ft | 444 kts | 119° |
| 2026-05-06 11:25 | 50.96948 | 3.02755 | 35045 ft | 444 kts | 119° |
| 2026-05-06 11:25 | 50.95497 | 3.07082 | 35224 ft | 445 kts | 120° |
| 2026-05-06 11:25 | 50.94039 | 3.11414 | 35394 ft | 445 kts | 119° |
| 2026-05-06 11:26 | 50.92578 | 3.15742 | 35563 ft | 446 kts | 120° |
| 2026-05-06 11:26 | 50.91108 | 3.20080 | 35719 ft | 447 kts | 120° |
| 2026-05-06 11:26 | 50.89637 | 3.24419 | 35882 ft | 447 kts | 120° |
| 2026-05-06 11:26 | 50.88183 | 3.28703 | 36028 ft | 448 kts | 120° |
| 2026-05-06 11:27 | 50.86712 | 3.33038 | 36227 ft | 448 kts | 120° |
| 2026-05-06 11:27 | 50.85234 | 3.37389 | 36384 ft | 448 kts | 120° |
| 2026-05-06 11:27 | 50.83761 | 3.41719 | 36531 ft | 448 kts | 120° |
| 2026-05-06 11:27 | 50.82281 | 3.46058 | 36683 ft | 448 kts | 120° |
| 2026-05-06 11:28 | 50.80813 | 3.50344 | 36850 ft | 448 kts | 120° |
| 2026-05-06 11:28 | 50.77828 | 3.59035 | 36898 ft | 452 kts | 120° |
| 2026-05-06 11:29 | 50.74819 | 3.67780 | 36897 ft | 453 kts | 120° |
| 2026-05-06 11:29 | 50.71816 | 3.76504 | 36890 ft | 452 kts | 120° |
| 2026-05-06 11:30 | 50.68798 | 3.85207 | 36893 ft | 452 kts | 121° |
| 2026-05-06 11:30 | 50.65778 | 3.93892 | 36892 ft | 452 kts | 121° |
| 2026-05-06 11:31 | 50.62772 | 4.02513 | 36897 ft | 452 kts | 121° |
| 2026-05-06 11:31 | 50.59730 | 4.11191 | 36895 ft | 452 kts | 121° |
| 2026-05-06 11:32 | 50.56684 | 4.19852 | 36897 ft | 452 kts | 121° |
| 2026-05-06 11:32 | 50.53653 | 4.28453 | 36901 ft | 452 kts | 121° |
| 2026-05-06 11:33 | 50.50603 | 4.37100 | 36905 ft | 452 kts | 121° |
| 2026-05-06 11:33 | 50.47545 | 4.45733 | 36905 ft | 452 kts | 121° |
| 2026-05-06 11:34 | 50.44480 | 4.54344 | 36906 ft | 452 kts | 121° |
| 2026-05-06 11:34 | 50.41403 | 4.62951 | 36896 ft | 452 kts | 121° |
| 2026-05-06 11:35 | 50.38332 | 4.71502 | 36884 ft | 453 kts | 121° |
| 2026-05-06 11:35 | 50.35245 | 4.80086 | 36881 ft | 453 kts | 121° |
| 2026-05-06 11:36 | 50.32153 | 4.88665 | 36880 ft | 453 kts | 121° |
| 2026-05-06 11:36 | 50.29067 | 4.97195 | 36869 ft | 454 kts | 121° |
| 2026-05-06 11:37 | 50.25958 | 5.05769 | 36862 ft | 454 kts | 121° |
| 2026-05-06 11:37 | 50.22829 | 5.14366 | 36864 ft | 455 kts | 122° |
| 2026-05-06 11:38 | 50.19693 | 5.22941 | 36861 ft | 455 kts | 122° |
| 2026-05-06 11:38 | 50.16557 | 5.31485 | 36865 ft | 455 kts | 122° |
| 2026-05-06 11:39 | 50.13416 | 5.39987 | 36863 ft | 455 kts | 122° |
| 2026-05-06 11:39 | 50.10260 | 5.48528 | 36867 ft | 455 kts | 122° |
| 2026-05-06 11:40 | 50.07106 | 5.57065 | 36872 ft | 455 kts | 122° |
| 2026-05-06 11:40 | 50.03937 | 5.65589 | 36866 ft | 454 kts | 122° |
| 2026-05-06 11:41 | 50.00793 | 5.74013 | 36863 ft | 453 kts | 123° |
| 2026-05-06 11:41 | 49.97627 | 5.82479 | 36854 ft | 453 kts | 123° |
| 2026-05-06 11:42 | 49.94453 | 5.90932 | 36851 ft | 453 kts | 123° |
| 2026-05-06 11:42 | 49.91275 | 5.99356 | 36841 ft | 453 kts | 123° |
| 2026-05-06 11:43 | 49.88100 | 6.07747 | 36832 ft | 453 kts | 123° |
| 2026-05-06 11:43 | 49.84949 | 6.16183 | 36831 ft | 453 kts | 121° |
| 2026-05-06 11:44 | 49.80567 | 6.29173 | 36819 ft | 453 kts | 120° |
| 2026-05-06 11:44 | 49.77691 | 6.37845 | 36794 ft | 454 kts | 120° |
| 2026-05-06 11:45 | 49.74752 | 6.46491 | 36789 ft | 454 kts | 121° |
| 2026-05-06 11:45 | 49.71792 | 6.55061 | 36788 ft | 455 kts | 121° |
| 2026-05-06 11:46 | 49.68828 | 6.63678 | 36787 ft | 455 kts | 121° |
| 2026-05-06 11:46 | 49.65865 | 6.72319 | 36782 ft | 455 kts | 121° |
| 2026-05-06 11:47 | 49.62905 | 6.80889 | 36766 ft | 455 kts | 121° |
| 2026-05-06 11:47 | 49.59916 | 6.89500 | 36778 ft | 455 kts | 121° |
| 2026-05-06 11:48 | 49.56925 | 6.98093 | 36787 ft | 455 kts | 121° |
| 2026-05-06 11:48 | 49.53931 | 7.06680 | 36798 ft | 455 kts | 121° |
| 2026-05-06 11:49 | 49.50953 | 7.15197 | 36812 ft | 454 kts | 122° |
| 2026-05-06 11:49 | 49.47960 | 7.23737 | 36791 ft | 454 kts | 122° |
| 2026-05-06 11:50 | 49.44958 | 7.32272 | 36801 ft | 454 kts | 122° |
| 2026-05-06 11:50 | 49.41944 | 7.40786 | 36809 ft | 453 kts | 122° |
| 2026-05-06 11:51 | 49.38915 | 7.49304 | 36799 ft | 453 kts | 122° |
| 2026-05-06 11:51 | 49.35916 | 7.57722 | 36813 ft | 453 kts | 122° |
| 2026-05-06 11:52 | 49.32890 | 7.66196 | 36784 ft | 454 kts | 122° |
| 2026-05-06 11:52 | 49.29857 | 7.74680 | 36794 ft | 454 kts | 122° |
| 2026-05-06 11:53 | 49.26813 | 7.83175 | 36793 ft | 455 kts | 122° |
| 2026-05-06 11:53 | 49.23762 | 7.91641 | 36782 ft | 455 kts | 122° |
| 2026-05-06 11:54 | 49.20697 | 8.00082 | 36757 ft | 456 kts | 123° |
| 2026-05-06 11:54 | 49.17615 | 8.08560 | 36765 ft | 458 kts | 123° |
| 2026-05-06 11:55 | 49.14508 | 8.17081 | 36777 ft | 459 kts | 123° |
| 2026-05-06 11:55 | 49.12758 | 8.21089 | 36781 ft | 453 kts | 134° |
| 2026-05-06 11:55 | 49.10577 | 8.24520 | 36784 ft | 448 kts | 144° |
| 2026-05-06 11:56 | 49.05275 | 8.29207 | 36786 ft | 437 kts | 164° |
| 2026-05-06 11:56 | 48.99412 | 8.30984 | 36791 ft | 432 kts | 175° |
| 2026-05-06 11:57 | 48.93450 | 8.32198 | 36802 ft | 433 kts | 175° |
| 2026-05-06 11:57 | 48.87490 | 8.33429 | 36810 ft | 433 kts | 175° |
| 2026-05-06 11:58 | 48.81642 | 8.35441 | 36811 ft | 439 kts | 160° |
| 2026-05-06 11:58 | 48.78941 | 8.37626 | 36812 ft | 444 kts | 149° |
| 2026-05-06 11:58 | 48.76556 | 8.40599 | 36804 ft | 450 kts | 138° |
| 2026-05-06 11:59 | 48.72712 | 8.48250 | 36807 ft | 456 kts | 130° |
| 2026-05-06 11:59 | 48.69018 | 8.56057 | 36816 ft | 457 kts | 130° |
| 2026-05-06 12:00 | 48.65313 | 8.63817 | 36825 ft | 457 kts | 130° |
| 2026-05-06 12:00 | 48.61577 | 8.71627 | 36797 ft | 455 kts | 131° |
| 2026-05-06 12:01 | 48.57943 | 8.79227 | 36805 ft | 454 kts | 131° |
| 2026-05-06 12:01 | 48.54246 | 8.86945 | 36806 ft | 454 kts | 131° |
| 2026-05-06 12:02 | 48.50541 | 8.94669 | 36817 ft | 454 kts | 131° |
| 2026-05-06 12:02 | 48.46846 | 9.02326 | 36824 ft | 454 kts | 131° |
| 2026-05-06 12:03 | 48.43151 | 9.09953 | 36802 ft | 454 kts | 131° |
| 2026-05-06 12:03 | 48.39470 | 9.17537 | 36824 ft | 454 kts | 131° |
| 2026-05-06 12:04 | 48.35754 | 9.25198 | 36827 ft | 453 kts | 131° |
| 2026-05-06 12:04 | 48.32188 | 9.32526 | 36830 ft | 453 kts | 131° |
| 2026-05-06 12:05 | 48.28480 | 9.40096 | 36830 ft | 453 kts | 131° |
| 2026-05-06 12:05 | 48.24534 | 9.47395 | 36784 ft | 445 kts | 142° |
| 2026-05-06 12:06 | 48.20131 | 9.53161 | 36792 ft | 442 kts | 144° |
| 2026-05-06 12:06 | 48.15577 | 9.59040 | 36801 ft | 442 kts | 144° |
| 2026-05-06 12:07 | 48.10973 | 9.64980 | 36805 ft | 443 kts | 144° |
| 2026-05-06 12:07 | 48.06432 | 9.70835 | 36804 ft | 442 kts | 144° |
| 2026-05-06 12:08 | 48.01805 | 9.76780 | 36795 ft | 442 kts | 144° |
| 2026-05-06 12:08 | 47.98967 | 9.80413 | 36776 ft | 442 kts | 144° |
| 2026-05-06 12:09 | 47.94303 | 9.86377 | 36801 ft | 442 kts | 144° |
| 2026-05-06 12:09 | 47.89712 | 9.92239 | 36808 ft | 442 kts | 144° |
| 2026-05-06 12:10 | 47.85107 | 9.98103 | 36813 ft | 442 kts | 144° |
| 2026-05-06 12:10 | 47.80669 | 10.03490 | 36811 ft | 440 kts | 148° |
| 2026-05-06 12:11 | 47.75757 | 10.08879 | 36804 ft | 439 kts | 149° |
| 2026-05-06 12:11 | 47.71025 | 10.13951 | 36782 ft | 439 kts | 149° |
| 2026-05-06 12:12 | 47.66074 | 10.19354 | 36795 ft | 440 kts | 149° |
| 2026-05-06 12:12 | 47.61242 | 10.24700 | 36802 ft | 440 kts | 149° |
| 2026-05-06 12:13 | 47.56495 | 10.29957 | 36799 ft | 440 kts | 149° |
| 2026-05-06 12:13 | 47.51735 | 10.35187 | 36792 ft | 440 kts | 149° |
| 2026-05-06 12:14 | 47.46843 | 10.40526 | 36789 ft | 439 kts | 149° |
| 2026-05-06 12:14 | 47.42041 | 10.45763 | 36770 ft | 440 kts | 149° |
| 2026-05-06 12:15 | 47.36932 | 10.50435 | 36786 ft | 432 kts | 158° |
| 2026-05-06 12:15 | 47.31642 | 10.54625 | 36783 ft | 432 kts | 157° |
| 2026-05-06 12:16 | 47.26343 | 10.58830 | 36792 ft | 432 kts | 158° |
| 2026-05-06 12:16 | 47.21086 | 10.62993 | 36789 ft | 432 kts | 158° |
| 2026-05-06 12:17 | 47.15729 | 10.66912 | 36790 ft | 426 kts | 165° |
| 2026-05-06 12:17 | 47.10180 | 10.69948 | 36804 ft | 426 kts | 165° |
| 2026-05-06 12:18 | 47.04646 | 10.73092 | 36749 ft | 428 kts | 160° |
| 2026-05-06 12:18 | 46.99708 | 10.78241 | 36808 ft | 447 kts | 141° |
| 2026-05-06 12:19 | 46.95431 | 10.84784 | 36810 ft | 448 kts | 140° |
| 2026-05-06 12:19 | 46.91129 | 10.91385 | 36848 ft | 449 kts | 140° |
| 2026-05-06 12:20 | 46.86815 | 10.97986 | 36853 ft | 449 kts | 140° |
| 2026-05-06 12:20 | 46.82431 | 11.04468 | 36864 ft | 444 kts | 147° |
| 2026-05-06 12:21 | 46.77343 | 11.09165 | 36847 ft | 432 kts | 160° |
| 2026-05-06 12:21 | 46.71941 | 11.13049 | 36865 ft | 433 kts | 160° |
| 2026-05-06 12:22 | 46.66541 | 11.16962 | 36878 ft | 435 kts | 160° |
| 2026-05-06 12:22 | 46.61128 | 11.20882 | 36887 ft | 435 kts | 160° |
| 2026-05-06 12:23 | 46.55700 | 11.24804 | 36890 ft | 435 kts | 160° |
| 2026-05-06 12:23 | 46.50310 | 11.28678 | 36894 ft | 435 kts | 160° |
| 2026-05-06 12:24 | 46.44883 | 11.32555 | 36867 ft | 435 kts | 160° |
| 2026-05-06 12:24 | 46.39452 | 11.36429 | 36887 ft | 435 kts | 160° |
| 2026-05-06 12:25 | 46.34031 | 11.40298 | 36907 ft | 434 kts | 160° |
| 2026-05-06 12:25 | 46.28645 | 11.44141 | 36909 ft | 434 kts | 160° |
| 2026-05-06 12:26 | 46.23305 | 11.47945 | 36916 ft | 434 kts | 160° |
| 2026-05-06 12:26 | 46.17823 | 11.51829 | 36910 ft | 433 kts | 160° |
| 2026-05-06 12:27 | 46.12405 | 11.55655 | 36918 ft | 433 kts | 160° |
| 2026-05-06 12:27 | 46.07027 | 11.59451 | 36921 ft | 433 kts | 160° |
| 2026-05-06 12:28 | 46.01616 | 11.63268 | 36903 ft | 433 kts | 160° |
| 2026-05-06 12:28 | 45.96206 | 11.67064 | 36915 ft | 433 kts | 160° |
| 2026-05-06 12:29 | 45.90826 | 11.70828 | 36938 ft | 433 kts | 161° |
| 2026-05-06 12:29 | 45.85418 | 11.74616 | 36945 ft | 433 kts | 161° |
| 2026-05-06 12:30 | 45.80015 | 11.78404 | 36942 ft | 431 kts | 161° |
| 2026-05-06 12:30 | 45.74628 | 11.82158 | 36939 ft | 430 kts | 161° |
| 2026-05-06 12:31 | 45.69239 | 11.85881 | 36939 ft | 430 kts | 161° |
| 2026-05-06 12:31 | 45.63885 | 11.89588 | 36952 ft | 430 kts | 161° |
| 2026-05-06 12:32 | 45.58506 | 11.93319 | 36956 ft | 430 kts | 161° |
| 2026-05-06 12:32 | 45.53127 | 11.97042 | 36922 ft | 429 kts | 161° |
| 2026-05-06 12:33 | 45.47814 | 12.00973 | 36930 ft | 432 kts | 158° |
| 2026-05-06 12:33 | 45.42601 | 12.05113 | 36933 ft | 432 kts | 158° |
| 2026-05-06 12:34 | 45.37356 | 12.09273 | 36913 ft | 432 kts | 158° |